TimeMDT,TemperatureF,Dew PointF,Humidity,Sea Level PressureIn,VisibilityMPH,Wind Direction,Wind SpeedMPH,Gust SpeedMPH,PrecipitationIn,Events,Conditions,WindDirDegrees,DateUTC
12:53 AM,68.0,32.0,26,29.52,10.0,South,8.1,-,N/A,,Clear,190,2013-09-27 06:53:00
1:53 AM,64.0,33.1,31,29.52,10.0,SE,6.9,-,N/A,,Clear,140,2013-09-27 07:53:00
2:53 AM,66.0,32.0,28,29.52,10.0,South,11.5,-,N/A,,Clear,190,2013-09-27 08:53:00
3:53 AM,64.0,32.0,30,29.52,10.0,South,9.2,-,N/A,,Clear,190,2013-09-27 09:53:00
4:53 AM,57.9,33.1,39,29.54,10.0,NW,3.5,-,N/A,,Clear,320,2013-09-27 10:53:00
5:53 AM,68.0,30.9,25,29.52,10.0,SE,4.6,-,N/A,,Clear,130,2013-09-27 11:53:00
6:53 AM,66.9,32.0,27,29.53,10.0,SSE,11.5,-,N/A,,Clear,160,2013-09-27 12:53:00
7:53 AM,64.9,33.1,31,29.55,10.0,South,6.9,-,N/A,,Clear,170,2013-09-27 13:53:00
8:53 AM,70.0,37.0,30,29.54,10.0,South,6.9,-,N/A,,Clear,190,2013-09-27 14:53:00
9:53 AM,75.9,36.0,23,29.51,10.0,South,12.7,-,N/A,,Clear,180,2013-09-27 15:53:00
10:53 AM,80.1,34.0,19,29.48,9.0,South,27.6,50.6,N/A,,Clear,190,2013-09-27 16:53:00
11:53 AM,82.0,35.1,18,29.47,10.0,SW,24.2,48.3,N/A,,Clear,230,2013-09-27 17:53:00
12:53 PM,82.9,36.0,19,29.44,10.0,SW,21.9,33.4,N/A,,Clear,230,2013-09-27 18:53:00
1:53 PM,78.1,43.0,29,29.47,10.0,WSW,28.8,35.7,N/A,,Clear,240,2013-09-27 19:53:00
2:53 PM,75.9,41.0,29,29.48,10.0,West,26.5,35.7,N/A,,Clear,260,2013-09-27 20:53:00
3:53 PM,75.0,39.0,27,29.51,10.0,WSW,25.3,31.1,N/A,,Scattered Clouds,250,2013-09-27 21:53:00
4:53 PM,64.9,46.0,50,29.59,10.0,NNE,18.4,28.8,N/A,,Scattered Clouds,20,2013-09-27 22:53:00
5:00 PM,64.4,46.4,52,29.72,10.0,North,20.7,29.9,N/A,,Mostly Cloudy,360,2013-09-27 23:00:00
5:53 PM,59.0,46.9,64,29.63,10.0,North,13.8,-,N/A,,Partly Cloudy,10,2013-09-27 23:53:00
6:53 PM,57.0,45.0,64,29.70,10.0,North,16.1,19.6,N/A,,Partly Cloudy,10,2013-09-28 00:53:00
7:53 PM,60.1,39.0,46,29.74,10.0,Calm,Calm,-,N/A,,Scattered Clouds,0,2013-09-28 01:53:00
8:53 PM,59.0,30.9,35,29.77,10.0,West,15.0,23.0,N/A,,Scattered Clouds,280,2013-09-28 02:53:00
9:53 PM,57.9,18.0,21,29.80,10.0,West,17.3,-,N/A,,Clear,280,2013-09-28 03:53:00
10:53 PM,52.0,42.1,69,29.85,10.0,North,8.1,-,N/A,,Clear,350,2013-09-28 04:53:00
11:53 PM,48.9,39.9,71,29.88,10.0,NNE,9.2,-,N/A,,Clear,30,2013-09-28 05:53:00